sensor_id;sensor_type;location;lat;lon;timestamp;temperature;humidity
10964;DHT22;5534;48.784;9.190;2024-01-10T00:00:23;1.20;99.90
10964;DHT22;5534;48.784;9.190;2024-01-10T00:02:49;1.20;99.90
10964;DHT22;5534;48.784;9.190;2024-01-10T00:05:15;1.20;99.90
10964;DHT22;5534;48.784;9.190;2024-01-10T00:07:40;1.20;99.90
10964;DHT22;5534;48.784;9.190;2024-01-10T00:10:06;1.10;99.90
10964;DHT22;5534;48.784;9.190;2024-01-10T00:12:32;1.10;99.90
10964;DHT22;5534;48.784;9.190;2024-01-10T00:15:05;1.20;99.90
10964;DHT22;5534;48.784;9.190;2024-01-10T00:17:31;1.10;99.90
10964;DHT22;5534;48.784;9.190;2024-01-10T00:19:57;1.30;99.90
10964;DHT22;5534;48.784;9.190;2024-01-10T00:22:23;1.20;99.90
10964;DHT22;5534;48.784;9.190;2024-01-10T00:24:49;1.20;99.90
10964;DHT22;5534;48.784;9.190;2024-01-10T00:27:15;1.10;99.90
10964;DHT22;5534;48.784;9.190;2024-01-10T00:29:41;1.10;99.90
10964;DHT22;5534;48.784;9.190;2024-01-10T00:32:07;0.90;99.90
10964;DHT22;5534;48.784;9.190;2024-01-10T00:34:32;1.10;99.90
10964;DHT22;5534;48.784;9.190;2024-01-10T00:36:58;1.10;99.90
10964;DHT22;5534;48.784;9.190;2024-01-10T00:39:24;1.10;99.90
10964;DHT22;5534;48.784;9.190;2024-01-10T00:41:50;1.00;99.90
10964;DHT22;5534;48.784;9.190;2024-01-10T00:44:16;1.00;99.90
10964;DHT22;5534;48.784;9.190;2024-01-10T00:46:42;0.90;99.90
10964;DHT22;5534;48.784;9.190;2024-01-10T00:49:08;1.00;99.90
10964;DHT22;5534;48.784;9.190;2024-01-10T00:51:33;1.10;99.90
10964;DHT22;5534;48.784;9.190;2024-01-10T00:53:59;1.10;99.90
10964;DHT22;5534;48.784;9.190;2024-01-10T00:56:25;1.10;99.90
10964;DHT22;5534;48.784;9.190;2024-01-10T00:58:51;1.10;99.90
10964;DHT22;5534;48.784;9.190;2024-01-10T01:01:16;1.10;99.90
10964;DHT22;5534;48.784;9.190;2024-01-10T01:03:42;1.10;99.90
10964;DHT22;5534;48.784;9.190;2024-01-10T01:06:08;1.10;99.90
10964;DHT22;5534;48.784;9.190;2024-01-10T01:08:34;0.90;99.90
10964;DHT22;5534;48.784;9.190;2024-01-10T01:10:59;0.90;99.90
10964;DHT22;5534;48.784;9.190;2024-01-10T01:13:26;0.80;99.90
10964;DHT22;5534;48.784;9.190;2024-01-10T01:15:51;0.70;99.90
10964;DHT22;5534;48.784;9.190;2024-01-10T01:18:17;0.80;99.90
10964;DHT22;5534;48.784;9.190;2024-01-10T01:20:45;0.90;99.90
10964;DHT22;5534;48.784;9.190;2024-01-10T01:23:10;1.10;99.90
10964;DHT22;5534;48.784;9.190;2024-01-10T01:25:36;1.00;99.90
10964;DHT22;5534;48.784;9.190;2024-01-10T01:28:02;0.90;99.90
10964;DHT22;5534;48.784;9.190;2024-01-10T01:30:28;0.60;99.90
10964;DHT22;5534;48.784;9.190;2024-01-10T01:32:53;0.90;99.90
10964;DHT22;5534;48.784;9.190;2024-01-10T01:35:19;1.00;99.90
10964;DHT22;5534;48.784;9.190;2024-01-10T01:37:48;0.90;99.90
10964;DHT22;5534;48.784;9.190;2024-01-10T01:40:14;1.00;99.90
10964;DHT22;5534;48.784;9.190;2024-01-10T01:42:42;0.90;99.90
10964;DHT22;5534;48.784;9.190;2024-01-10T01:45:09;0.80;99.90
10964;DHT22;5534;48.784;9.190;2024-01-10T01:47:35;0.60;99.90
10964;DHT22;5534;48.784;9.190;2024-01-10T01:50:01;0.80;99.90
10964;DHT22;5534;48.784;9.190;2024-01-10T01:52:30;0.90;99.90
10964;DHT22;5534;48.784;9.190;2024-01-10T01:54:56;1.10;99.90
10964;DHT22;5534;48.784;9.190;2024-01-10T01:57:21;1.20;99.90
10964;DHT22;5534;48.784;9.190;2024-01-10T01:59:48;1.10;99.90
10964;DHT22;5534;48.784;9.190;2024-01-10T02:02:15;0.90;99.90
10964;DHT22;5534;48.784;9.190;2024-01-10T02:04:42;0.70;99.90
10964;DHT22;5534;48.784;9.190;2024-01-10T02:07:07;0.90;99.90
10964;DHT22;5534;48.784;9.190;2024-01-10T02:09:33;0.80;99.90
10964;DHT22;5534;48.784;9.190;2024-01-10T02:11:59;0.90;99.90
10964;DHT22;5534;48.784;9.190;2024-01-10T02:14:25;1.00;99.90
10964;DHT22;5534;48.784;9.190;2024-01-10T02:16:50;1.00;99.90
10964;DHT22;5534;48.784;9.190;2024-01-10T02:19:23;1.10;99.90
10964;DHT22;5534;48.784;9.190;2024-01-10T02:21:49;0.90;99.90
10964;DHT22;5534;48.784;9.190;2024-01-10T02:24:15;1.00;99.90
10964;DHT22;5534;48.784;9.190;2024-01-10T02:26:41;0.90;99.90
10964;DHT22;5534;48.784;9.190;2024-01-10T02:29:07;1.00;99.90
10964;DHT22;5534;48.784;9.190;2024-01-10T02:31:33;1.00;99.90
10964;DHT22;5534;48.784;9.190;2024-01-10T02:33:59;0.70;99.90
10964;DHT22;5534;48.784;9.190;2024-01-10T02:36:25;0.80;99.90
10964;DHT22;5534;48.784;9.190;2024-01-10T02:38:51;0.90;99.90
10964;DHT22;5534;48.784;9.190;2024-01-10T02:41:17;0.90;99.90
10964;DHT22;5534;48.784;9.190;2024-01-10T02:43:42;0.70;99.90
10964;DHT22;5534;48.784;9.190;2024-01-10T02:46:08;0.80;99.90
10964;DHT22;5534;48.784;9.190;2024-01-10T02:48:35;0.90;99.90
10964;DHT22;5534;48.784;9.190;2024-01-10T02:51:02;0.80;99.90
10964;DHT22;5534;48.784;9.190;2024-01-10T02:53:31;0.90;99.90
10964;DHT22;5534;48.784;9.190;2024-01-10T02:55:57;0.90;99.90
10964;DHT22;5534;48.784;9.190;2024-01-10T02:58:23;0.90;99.90
10964;DHT22;5534;48.784;9.190;2024-01-10T03:00:52;0.80;99.90
10964;DHT22;5534;48.784;9.190;2024-01-10T03:03:19;0.80;99.90
10964;DHT22;5534;48.784;9.190;2024-01-10T03:05:46;0.80;99.90
10964;DHT22;5534;48.784;9.190;2024-01-10T03:08:12;0.60;99.90
10964;DHT22;5534;48.784;9.190;2024-01-10T03:10:38;0.70;99.90
10964;DHT22;5534;48.784;9.190;2024-01-10T03:13:03;0.80;99.90
10964;DHT22;5534;48.784;9.190;2024-01-10T03:15:29;0.90;99.90
10964;DHT22;5534;48.784;9.190;2024-01-10T03:17:57;0.90;99.90
10964;DHT22;5534;48.784;9.190;2024-01-10T03:20:24;0.70;99.90
10964;DHT22;5534;48.784;9.190;2024-01-10T03:22:50;0.80;99.90
10964;DHT22;5534;48.784;9.190;2024-01-10T03:25:16;1.00;99.90
10964;DHT22;5534;48.784;9.190;2024-01-10T03:27:41;0.80;99.90
10964;DHT22;5534;48.784;9.190;2024-01-10T03:30:07;0.90;99.90
10964;DHT22;5534;48.784;9.190;2024-01-10T03:32:33;0.70;99.90
10964;DHT22;5534;48.784;9.190;2024-01-10T03:34:59;0.90;99.90
10964;DHT22;5534;48.784;9.190;2024-01-10T03:37:25;0.90;99.90
10964;DHT22;5534;48.784;9.190;2024-01-10T03:39:50;0.90;99.90
10964;DHT22;5534;48.784;9.190;2024-01-10T03:42:16;0.90;99.90
10964;DHT22;5534;48.784;9.190;2024-01-10T03:44:42;0.80;99.90
10964;DHT22;5534;48.784;9.190;2024-01-10T03:47:08;0.90;99.90
10964;DHT22;5534;48.784;9.190;2024-01-10T03:49:33;0.90;99.90
10964;DHT22;5534;48.784;9.190;2024-01-10T03:51:59;0.90;99.90
10964;DHT22;5534;48.784;9.190;2024-01-10T03:54:25;0.90;99.90
10964;DHT22;5534;48.784;9.190;2024-01-10T03:56:50;1.00;99.90
10964;DHT22;5534;48.784;9.190;2024-01-10T03:59:16;1.00;99.90
10964;DHT22;5534;48.784;9.190;2024-01-10T04:01:42;1.00;99.90
10964;DHT22;5534;48.784;9.190;2024-01-10T04:04:08;1.10;99.90
10964;DHT22;5534;48.784;9.190;2024-01-10T04:06:34;1.00;99.90
10964;DHT22;5534;48.784;9.190;2024-01-10T04:09:00;1.00;99.90
10964;DHT22;5534;48.784;9.190;2024-01-10T04:11:26;1.00;99.90
10964;DHT22;5534;48.784;9.190;2024-01-10T04:13:52;1.00;99.90
10964;DHT22;5534;48.784;9.190;2024-01-10T04:16:17;1.00;99.90
10964;DHT22;5534;48.784;9.190;2024-01-10T04:18:43;0.90;99.90
10964;DHT22;5534;48.784;9.190;2024-01-10T04:21:09;1.00;99.90
10964;DHT22;5534;48.784;9.190;2024-01-10T04:23:35;1.10;99.90
10964;DHT22;5534;48.784;9.190;2024-01-10T04:26:01;0.80;99.90
10964;DHT22;5534;48.784;9.190;2024-01-10T04:28:28;1.00;99.90
10964;DHT22;5534;48.784;9.190;2024-01-10T04:30:54;1.00;99.90
10964;DHT22;5534;48.784;9.190;2024-01-10T04:33:20;1.00;99.90
10964;DHT22;5534;48.784;9.190;2024-01-10T04:35:45;1.10;99.90
10964;DHT22;5534;48.784;9.190;2024-01-10T04:38:11;1.00;99.90
10964;DHT22;5534;48.784;9.190;2024-01-10T04:40:37;1.00;99.90
10964;DHT22;5534;48.784;9.190;2024-01-10T04:43:02;1.10;99.90
10964;DHT22;5534;48.784;9.190;2024-01-10T04:45:28;1.10;99.90
10964;DHT22;5534;48.784;9.190;2024-01-10T04:47:54;1.10;99.90
10964;DHT22;5534;48.784;9.190;2024-01-10T04:50:20;1.10;99.90
10964;DHT22;5534;48.784;9.190;2024-01-10T04:52:45;0.80;99.90
10964;DHT22;5534;48.784;9.190;2024-01-10T04:55:11;0.90;99.90
10964;DHT22;5534;48.784;9.190;2024-01-10T04:57:37;1.00;99.90
10964;DHT22;5534;48.784;9.190;2024-01-10T05:00:03;0.90;99.90
10964;DHT22;5534;48.784;9.190;2024-01-10T05:02:30;0.60;99.90
10964;DHT22;5534;48.784;9.190;2024-01-10T05:04:55;0.80;99.90
10964;DHT22;5534;48.784;9.190;2024-01-10T05:07:21;0.80;99.90
10964;DHT22;5534;48.784;9.190;2024-01-10T05:09:47;1.00;99.90
10964;DHT22;5534;48.784;9.190;2024-01-10T05:12:12;0.90;99.90
10964;DHT22;5534;48.784;9.190;2024-01-10T05:14:38;1.00;99.90
10964;DHT22;5534;48.784;9.190;2024-01-10T05:17:06;1.00;99.90
10964;DHT22;5534;48.784;9.190;2024-01-10T05:19:31;1.00;99.90
10964;DHT22;5534;48.784;9.190;2024-01-10T05:21:58;1.00;99.90
10964;DHT22;5534;48.784;9.190;2024-01-10T05:24:24;0.90;99.90
10964;DHT22;5534;48.784;9.190;2024-01-10T05:26:50;0.70;99.90
10964;DHT22;5534;48.784;9.190;2024-01-10T05:29:16;0.80;99.90
10964;DHT22;5534;48.784;9.190;2024-01-10T05:31:45;0.80;99.90
10964;DHT22;5534;48.784;9.190;2024-01-10T05:34:12;0.80;99.90
10964;DHT22;5534;48.784;9.190;2024-01-10T05:36:37;0.80;99.90
10964;DHT22;5534;48.784;9.190;2024-01-10T05:39:03;0.70;99.90
10964;DHT22;5534;48.784;9.190;2024-01-10T05:41:29;0.70;99.90
10964;DHT22;5534;48.784;9.190;2024-01-10T05:43:55;0.70;99.90
10964;DHT22;5534;48.784;9.190;2024-01-10T05:46:20;0.30;99.90
10964;DHT22;5534;48.784;9.190;2024-01-10T05:48:46;0.40;99.90
10964;DHT22;5534;48.784;9.190;2024-01-10T05:51:13;0.60;99.90
10964;DHT22;5534;48.784;9.190;2024-01-10T05:53:39;0.50;99.90
10964;DHT22;5534;48.784;9.190;2024-01-10T05:56:08;0.80;99.90
10964;DHT22;5534;48.784;9.190;2024-01-10T05:58:33;0.70;99.90
10964;DHT22;5534;48.784;9.190;2024-01-10T06:00:59;0.60;99.90
10964;DHT22;5534;48.784;9.190;2024-01-10T06:03:25;0.60;99.90
10964;DHT22;5534;48.784;9.190;2024-01-10T06:05:51;0.70;99.90
10964;DHT22;5534;48.784;9.190;2024-01-10T06:08:16;0.70;99.90
10964;DHT22;5534;48.784;9.190;2024-01-10T06:10:42;0.80;99.90
10964;DHT22;5534;48.784;9.190;2024-01-10T06:13:08;0.70;99.90
10964;DHT22;5534;48.784;9.190;2024-01-10T06:15:34;0.80;99.90
10964;DHT22;5534;48.784;9.190;2024-01-10T06:17:59;0.80;99.90
10964;DHT22;5534;48.784;9.190;2024-01-10T06:20:25;0.80;99.90
10964;DHT22;5534;48.784;9.190;2024-01-10T06:22:51;0.60;99.90
10964;DHT22;5534;48.784;9.190;2024-01-10T06:25:16;0.50;99.90
10964;DHT22;5534;48.784;9.190;2024-01-10T06:27:42;0.60;99.90
10964;DHT22;5534;48.784;9.190;2024-01-10T06:30:08;0.70;99.90
10964;DHT22;5534;48.784;9.190;2024-01-10T06:32:34;0.70;99.90
10964;DHT22;5534;48.784;9.190;2024-01-10T06:35:00;0.50;99.90
10964;DHT22;5534;48.784;9.190;2024-01-10T06:37:28;0.60;99.90
10964;DHT22;5534;48.784;9.190;2024-01-10T06:39:55;0.60;99.90
10964;DHT22;5534;48.784;9.190;2024-01-10T06:42:22;0.70;99.90
10964;DHT22;5534;48.784;9.190;2024-01-10T06:44:47;0.80;99.90
10964;DHT22;5534;48.784;9.190;2024-01-10T06:47:13;0.80;99.90
10964;DHT22;5534;48.784;9.190;2024-01-10T06:49:40;0.70;99.90
10964;DHT22;5534;48.784;9.190;2024-01-10T06:52:06;0.70;99.90
10964;DHT22;5534;48.784;9.190;2024-01-10T06:54:33;0.70;99.90
10964;DHT22;5534;48.784;9.190;2024-01-10T06:56:59;0.70;99.90
10964;DHT22;5534;48.784;9.190;2024-01-10T06:59:25;0.70;99.90
10964;DHT22;5534;48.784;9.190;2024-01-10T07:01:52;0.70;99.90
10964;DHT22;5534;48.784;9.190;2024-01-10T07:04:18;0.60;99.90
10964;DHT22;5534;48.784;9.190;2024-01-10T07:06:44;0.60;99.90
10964;DHT22;5534;48.784;9.190;2024-01-10T07:09:10;0.70;99.90
10964;DHT22;5534;48.784;9.190;2024-01-10T07:11:35;0.60;99.90
10964;DHT22;5534;48.784;9.190;2024-01-10T07:14:01;0.60;99.90
10964;DHT22;5534;48.784;9.190;2024-01-10T07:16:27;0.60;99.90
10964;DHT22;5534;48.784;9.190;2024-01-10T07:18:53;0.60;99.90
10964;DHT22;5534;48.784;9.190;2024-01-10T07:21:18;0.60;99.90
10964;DHT22;5534;48.784;9.190;2024-01-10T07:23:44;0.60;99.90
10964;DHT22;5534;48.784;9.190;2024-01-10T07:26:13;0.60;99.90
10964;DHT22;5534;48.784;9.190;2024-01-10T07:28:39;0.60;99.90
10964;DHT22;5534;48.784;9.190;2024-01-10T07:31:05;0.60;99.90
10964;DHT22;5534;48.784;9.190;2024-01-10T07:33:30;0.50;99.90
10964;DHT22;5534;48.784;9.190;2024-01-10T07:35:57;0.60;99.90
10964;DHT22;5534;48.784;9.190;2024-01-10T07:38:23;0.60;99.90
10964;DHT22;5534;48.784;9.190;2024-01-10T07:40:49;0.50;99.90
10964;DHT22;5534;48.784;9.190;2024-01-10T07:43:14;0.50;99.90
10964;DHT22;5534;48.784;9.190;2024-01-10T07:45:40;0.60;99.90
10964;DHT22;5534;48.784;9.190;2024-01-10T07:48:06;0.60;99.90
10964;DHT22;5534;48.784;9.190;2024-01-10T07:50:32;0.60;99.90
10964;DHT22;5534;48.784;9.190;2024-01-10T07:52:58;0.70;99.90
10964;DHT22;5534;48.784;9.190;2024-01-10T07:55:24;1.00;99.90
10964;DHT22;5534;48.784;9.190;2024-01-10T07:57:49;1.30;99.90
10964;DHT22;5534;48.784;9.190;2024-01-10T08:00:15;1.50;99.90
10964;DHT22;5534;48.784;9.190;2024-01-10T08:02:41;1.70;99.90
10964;DHT22;5534;48.784;9.190;2024-01-10T08:05:07;2.10;99.90
10964;DHT22;5534;48.784;9.190;2024-01-10T08:07:38;2.50;99.90
10964;DHT22;5534;48.784;9.190;2024-01-10T08:10:05;2.60;99.90
10964;DHT22;5534;48.784;9.190;2024-01-10T08:12:31;2.50;99.90
10964;DHT22;5534;48.784;9.190;2024-01-10T08:14:57;2.20;99.90
10964;DHT22;5534;48.784;9.190;2024-01-10T08:17:23;1.90;99.90
10964;DHT22;5534;48.784;9.190;2024-01-10T08:19:49;1.70;99.90
10964;DHT22;5534;48.784;9.190;2024-01-10T08:22:15;1.40;99.90
10964;DHT22;5534;48.784;9.190;2024-01-10T08:24:41;1.40;99.90
10964;DHT22;5534;48.784;9.190;2024-01-10T08:27:07;1.30;99.90
10964;DHT22;5534;48.784;9.190;2024-01-10T08:29:33;1.30;99.90
10964;DHT22;5534;48.784;9.190;2024-01-10T08:31:59;1.20;99.90
10964;DHT22;5534;48.784;9.190;2024-01-10T08:34:26;1.20;99.90
10964;DHT22;5534;48.784;9.190;2024-01-10T08:36:53;0.90;99.90
10964;DHT22;5534;48.784;9.190;2024-01-10T08:39:18;1.10;99.90
10964;DHT22;5534;48.784;9.190;2024-01-10T08:41:44;1.10;99.90
10964;DHT22;5534;48.784;9.190;2024-01-10T08:44:11;1.10;99.90
10964;DHT22;5534;48.784;9.190;2024-01-10T08:46:36;1.10;99.90
10964;DHT22;5534;48.784;9.190;2024-01-10T08:49:04;1.10;99.90
10964;DHT22;5534;48.784;9.190;2024-01-10T08:51:30;1.00;99.90
10964;DHT22;5534;48.784;9.190;2024-01-10T08:53:56;1.00;99.90
10964;DHT22;5534;48.784;9.190;2024-01-10T08:56:22;0.70;99.90
10964;DHT22;5534;48.784;9.190;2024-01-10T08:58:49;0.80;99.90
10964;DHT22;5534;48.784;9.190;2024-01-10T09:01:15;1.00;99.90
10964;DHT22;5534;48.784;9.190;2024-01-10T09:03:40;0.20;99.90
10964;DHT22;5534;48.784;9.190;2024-01-10T09:06:06;0.20;99.90
10964;DHT22;5534;48.784;9.190;2024-01-10T09:08:35;0.60;99.90
10964;DHT22;5534;48.784;9.190;2024-01-10T09:11:01;0.80;99.90
10964;DHT22;5534;48.784;9.190;2024-01-10T09:13:26;0.80;99.90
10964;DHT22;5534;48.784;9.190;2024-01-10T09:15:53;1.00;99.90
10964;DHT22;5534;48.784;9.190;2024-01-10T09:18:18;1.10;99.90
10964;DHT22;5534;48.784;9.190;2024-01-10T09:20:44;1.00;99.90
10964;DHT22;5534;48.784;9.190;2024-01-10T09:23:10;1.00;99.90
10964;DHT22;5534;48.784;9.190;2024-01-10T09:25:36;1.20;99.90
10964;DHT22;5534;48.784;9.190;2024-01-10T09:28:04;1.10;99.90
10964;DHT22;5534;48.784;9.190;2024-01-10T09:30:30;0.90;99.90
10964;DHT22;5534;48.784;9.190;2024-01-10T09:32:55;0.40;99.90
10964;DHT22;5534;48.784;9.190;2024-01-10T09:35:22;0.60;99.90
10964;DHT22;5534;48.784;9.190;2024-01-10T09:37:48;1.00;99.90
10964;DHT22;5534;48.784;9.190;2024-01-10T09:40:16;1.20;99.90
10964;DHT22;5534;48.784;9.190;2024-01-10T09:42:44;1.20;99.90
10964;DHT22;5534;48.784;9.190;2024-01-10T09:45:12;1.30;99.90
10964;DHT22;5534;48.784;9.190;2024-01-10T09:47:39;1.30;99.90
10964;DHT22;5534;48.784;9.190;2024-01-10T09:50:06;1.20;99.90
10964;DHT22;5534;48.784;9.190;2024-01-10T09:52:42;1.30;99.90
10964;DHT22;5534;48.784;9.190;2024-01-10T09:55:14;1.40;99.90
10964;DHT22;5534;48.784;9.190;2024-01-10T09:57:42;1.40;99.90
10964;DHT22;5534;48.784;9.190;2024-01-10T10:00:10;1.40;99.90
10964;DHT22;5534;48.784;9.190;2024-01-10T10:02:38;1.50;99.90
10964;DHT22;5534;48.784;9.190;2024-01-10T10:05:16;1.60;99.90
10964;DHT22;5534;48.784;9.190;2024-01-10T10:10:14;1.70;99.90
10964;DHT22;5534;48.784;9.190;2024-01-10T10:12:48;1.80;99.90
10964;DHT22;5534;48.784;9.190;2024-01-10T10:15:18;1.80;99.90
10964;DHT22;5534;48.784;9.190;2024-01-10T10:17:49;1.80;99.90
10964;DHT22;5534;48.784;9.190;2024-01-10T10:20:23;1.90;99.90
10964;DHT22;5534;48.784;9.190;2024-01-10T10:25:29;1.90;99.90
10964;DHT22;5534;48.784;9.190;2024-01-10T10:27:56;1.90;99.90
10964;DHT22;5534;48.784;9.190;2024-01-10T10:30:23;2.00;99.90
10964;DHT22;5534;48.784;9.190;2024-01-10T10:32:50;2.10;99.90
10964;DHT22;5534;48.784;9.190;2024-01-10T10:35:17;2.20;99.90
10964;DHT22;5534;48.784;9.190;2024-01-10T10:37:43;2.20;99.90
10964;DHT22;5534;48.784;9.190;2024-01-10T10:40:14;2.10;99.90
10964;DHT22;5534;48.784;9.190;2024-01-10T10:42:44;2.10;99.90
10964;DHT22;5534;48.784;9.190;2024-01-10T10:45:18;2.20;99.90
10964;DHT22;5534;48.784;9.190;2024-01-10T10:47:45;2.30;99.90
10964;DHT22;5534;48.784;9.190;2024-01-10T10:50:21;2.40;99.90
10964;DHT22;5534;48.784;9.190;2024-01-10T10:52:51;2.40;99.90
10964;DHT22;5534;48.784;9.190;2024-01-10T10:55:18;2.40;99.90
10964;DHT22;5534;48.784;9.190;2024-01-10T10:57:46;2.50;99.90
10964;DHT22;5534;48.784;9.190;2024-01-10T11:00:18;2.50;99.90
10964;DHT22;5534;48.784;9.190;2024-01-10T11:02:46;2.60;99.90
10964;DHT22;5534;48.784;9.190;2024-01-10T11:05:13;2.40;99.90
10964;DHT22;5534;48.784;9.190;2024-01-10T11:07:41;2.00;99.90
10964;DHT22;5534;48.784;9.190;2024-01-10T11:10:13;2.30;99.90
10964;DHT22;5534;48.784;9.190;2024-01-10T11:21:29;2.60;99.90
10964;DHT22;5534;48.784;9.190;2024-01-10T11:24:00;2.50;99.90
10964;DHT22;5534;48.784;9.190;2024-01-10T11:26:27;2.60;99.90
10964;DHT22;5534;48.784;9.190;2024-01-10T11:28:53;2.50;99.90
10964;DHT22;5534;48.784;9.190;2024-01-10T11:31:30;2.80;99.90
10964;DHT22;5534;48.784;9.190;2024-01-10T11:34:00;2.80;99.90
10964;DHT22;5534;48.784;9.190;2024-01-10T11:36:27;2.30;99.90
10964;DHT22;5534;48.784;9.190;2024-01-10T11:41:30;2.60;99.90
10964;DHT22;5534;48.784;9.190;2024-01-10T11:46:48;3.10;99.90
10964;DHT22;5534;48.784;9.190;2024-01-10T11:49:19;3.20;99.90
10964;DHT22;5534;48.784;9.190;2024-01-10T11:51:59;3.20;99.90
10964;DHT22;5534;48.784;9.190;2024-01-10T11:54:41;3.30;99.90
10964;DHT22;5534;48.784;9.190;2024-01-10T11:57:25;3.10;99.90
10964;DHT22;5534;48.784;9.190;2024-01-10T11:59:55;3.20;99.90
10964;DHT22;5534;48.784;9.190;2024-01-10T12:02:31;2.80;99.90
10964;DHT22;5534;48.784;9.190;2024-01-10T12:04:57;3.10;99.90
10964;DHT22;5534;48.784;9.190;2024-01-10T12:07:23;3.30;99.90
10964;DHT22;5534;48.784;9.190;2024-01-10T12:09:50;3.40;99.90
10964;DHT22;5534;48.784;9.190;2024-01-10T12:12:17;3.30;99.90
10964;DHT22;5534;48.784;9.190;2024-01-10T12:14:43;3.50;99.90
10964;DHT22;5534;48.784;9.190;2024-01-10T12:17:12;3.30;99.90
10964;DHT22;5534;48.784;9.190;2024-01-10T12:19:41;3.20;99.90
10964;DHT22;5534;48.784;9.190;2024-01-10T12:22:10;3.40;99.90
10964;DHT22;5534;48.784;9.190;2024-01-10T12:24:43;3.50;99.90
10964;DHT22;5534;48.784;9.190;2024-01-10T12:27:12;3.60;99.90
10964;DHT22;5534;48.784;9.190;2024-01-10T12:29:38;3.70;99.90
10964;DHT22;5534;48.784;9.190;2024-01-10T12:32:04;3.70;99.90
10964;DHT22;5534;48.784;9.190;2024-01-10T12:34:30;3.80;99.90
10964;DHT22;5534;48.784;9.190;2024-01-10T12:36:56;3.80;99.90
10964;DHT22;5534;48.784;9.190;2024-01-10T12:39:22;3.80;99.90
10964;DHT22;5534;48.784;9.190;2024-01-10T12:41:49;3.80;99.90
10964;DHT22;5534;48.784;9.190;2024-01-10T12:44:16;3.90;99.90
10964;DHT22;5534;48.784;9.190;2024-01-10T12:46:51;3.60;99.90
10964;DHT22;5534;48.784;9.190;2024-01-10T12:49:18;3.90;99.90
10964;DHT22;5534;48.784;9.190;2024-01-10T12:51:47;3.80;99.90
10964;DHT22;5534;48.784;9.190;2024-01-10T12:54:13;3.90;99.90
10964;DHT22;5534;48.784;9.190;2024-01-10T12:56:38;3.50;99.90
10964;DHT22;5534;48.784;9.190;2024-01-10T12:59:04;3.30;99.90
10964;DHT22;5534;48.784;9.190;2024-01-10T13:01:30;3.80;99.90
10964;DHT22;5534;48.784;9.190;2024-01-10T13:03:56;4.00;99.90
10964;DHT22;5534;48.784;9.190;2024-01-10T13:06:22;4.20;99.90
10964;DHT22;5534;48.784;9.190;2024-01-10T13:08:48;4.50;99.90
10964;DHT22;5534;48.784;9.190;2024-01-10T13:11:14;4.50;99.90
10964;DHT22;5534;48.784;9.190;2024-01-10T13:13:41;4.50;99.90
10964;DHT22;5534;48.784;9.190;2024-01-10T13:16:08;4.50;99.90
10964;DHT22;5534;48.784;9.190;2024-01-10T13:18:38;4.50;99.90
10964;DHT22;5534;48.784;9.190;2024-01-10T13:21:05;4.50;99.90
10964;DHT22;5534;48.784;9.190;2024-01-10T13:23:30;4.40;99.90
10964;DHT22;5534;48.784;9.190;2024-01-10T13:25:56;4.30;99.90
10964;DHT22;5534;48.784;9.190;2024-01-10T13:28:22;4.50;99.90
10964;DHT22;5534;48.784;9.190;2024-01-10T13:30:48;4.60;99.90
10964;DHT22;5534;48.784;9.190;2024-01-10T13:33:16;4.60;99.90
10964;DHT22;5534;48.784;9.190;2024-01-10T13:35:42;4.60;99.90
10964;DHT22;5534;48.784;9.190;2024-01-10T13:38:08;4.60;99.90
10964;DHT22;5534;48.784;9.190;2024-01-10T13:40:35;4.60;99.90
10964;DHT22;5534;48.784;9.190;2024-01-10T13:43:01;4.60;99.90
10964;DHT22;5534;48.784;9.190;2024-01-10T13:45:28;4.00;99.90
10964;DHT22;5534;48.784;9.190;2024-01-10T13:47:54;4.20;99.90
10964;DHT22;5534;48.784;9.190;2024-01-10T13:50:20;4.30;99.90
10964;DHT22;5534;48.784;9.190;2024-01-10T13:52:46;4.40;99.90
10964;DHT22;5534;48.784;9.190;2024-01-10T13:55:12;4.30;99.90
10964;DHT22;5534;48.784;9.190;2024-01-10T13:57:37;4.30;99.90
10964;DHT22;5534;48.784;9.190;2024-01-10T14:00:05;4.50;99.90
10964;DHT22;5534;48.784;9.190;2024-01-10T14:02:33;4.50;99.90
10964;DHT22;5534;48.784;9.190;2024-01-10T14:04:58;4.40;99.90
10964;DHT22;5534;48.784;9.190;2024-01-10T14:07:24;4.40;99.90
10964;DHT22;5534;48.784;9.190;2024-01-10T14:09:50;4.40;99.90
10964;DHT22;5534;48.784;9.190;2024-01-10T14:12:16;4.30;99.90
10964;DHT22;5534;48.784;9.190;2024-01-10T14:14:42;4.30;99.90
10964;DHT22;5534;48.784;9.190;2024-01-10T14:17:08;4.20;99.90
10964;DHT22;5534;48.784;9.190;2024-01-10T14:19:34;4.20;99.90
10964;DHT22;5534;48.784;9.190;2024-01-10T14:22:00;4.30;99.90
10964;DHT22;5534;48.784;9.190;2024-01-10T14:24:27;4.30;99.90
10964;DHT22;5534;48.784;9.190;2024-01-10T14:26:53;4.30;99.90
10964;DHT22;5534;48.784;9.190;2024-01-10T14:29:21;4.30;99.90
10964;DHT22;5534;48.784;9.190;2024-01-10T14:31:48;4.30;99.90
10964;DHT22;5534;48.784;9.190;2024-01-10T14:34:15;4.30;99.90
10964;DHT22;5534;48.784;9.190;2024-01-10T14:36:41;4.20;99.90
10964;DHT22;5534;48.784;9.190;2024-01-10T14:39:07;4.20;99.90
10964;DHT22;5534;48.784;9.190;2024-01-10T14:41:33;4.10;99.90
10964;DHT22;5534;48.784;9.190;2024-01-10T14:44:00;4.10;99.90
10964;DHT22;5534;48.784;9.190;2024-01-10T14:46:26;4.20;99.90
10964;DHT22;5534;48.784;9.190;2024-01-10T14:48:54;4.00;99.90
10964;DHT22;5534;48.784;9.190;2024-01-10T14:51:20;4.00;99.90
10964;DHT22;5534;48.784;9.190;2024-01-10T14:53:45;4.00;99.90
10964;DHT22;5534;48.784;9.190;2024-01-10T14:56:11;4.00;99.90
10964;DHT22;5534;48.784;9.190;2024-01-10T14:58:38;4.00;99.90
10964;DHT22;5534;48.784;9.190;2024-01-10T15:01:07;4.00;99.90
10964;DHT22;5534;48.784;9.190;2024-01-10T15:03:33;3.90;99.90
10964;DHT22;5534;48.784;9.190;2024-01-10T15:05:59;3.90;99.90
10964;DHT22;5534;48.784;9.190;2024-01-10T15:08:25;3.90;99.90
10964;DHT22;5534;48.784;9.190;2024-01-10T15:10:51;3.90;99.90
10964;DHT22;5534;48.784;9.190;2024-01-10T15:13:16;3.90;99.90
10964;DHT22;5534;48.784;9.190;2024-01-10T15:15:43;3.80;99.90
10964;DHT22;5534;48.784;9.190;2024-01-10T15:18:09;3.70;99.90
10964;DHT22;5534;48.784;9.190;2024-01-10T15:20:35;3.70;99.90
10964;DHT22;5534;48.784;9.190;2024-01-10T15:23:01;3.70;99.90
10964;DHT22;5534;48.784;9.190;2024-01-10T15:25:26;3.70;99.90
10964;DHT22;5534;48.784;9.190;2024-01-10T15:27:52;3.70;99.90
10964;DHT22;5534;48.784;9.190;2024-01-10T15:30:18;3.80;99.90
10964;DHT22;5534;48.784;9.190;2024-01-10T15:32:47;3.70;99.90
10964;DHT22;5534;48.784;9.190;2024-01-10T15:35:14;3.70;99.90
10964;DHT22;5534;48.784;9.190;2024-01-10T15:37:40;3.70;99.90
10964;DHT22;5534;48.784;9.190;2024-01-10T15:40:13;3.70;99.90
10964;DHT22;5534;48.784;9.190;2024-01-10T15:42:42;3.70;99.90
10964;DHT22;5534;48.784;9.190;2024-01-10T15:45:11;3.60;99.90
10964;DHT22;5534;48.784;9.190;2024-01-10T15:47:37;3.60;99.90
10964;DHT22;5534;48.784;9.190;2024-01-10T15:50:03;3.50;99.90
10964;DHT22;5534;48.784;9.190;2024-01-10T15:52:29;3.60;99.90
10964;DHT22;5534;48.784;9.190;2024-01-10T15:54:55;3.60;99.90
10964;DHT22;5534;48.784;9.190;2024-01-10T15:57:23;3.50;99.90
10964;DHT22;5534;48.784;9.190;2024-01-10T15:59:50;3.00;99.90
10964;DHT22;5534;48.784;9.190;2024-01-10T16:02:15;3.00;99.90
10964;DHT22;5534;48.784;9.190;2024-01-10T16:04:41;3.10;99.90
10964;DHT22;5534;48.784;9.190;2024-01-10T16:07:07;3.20;99.90
10964;DHT22;5534;48.784;9.190;2024-01-10T16:09:36;2.90;99.90
10964;DHT22;5534;48.784;9.190;2024-01-10T16:12:02;3.00;99.90
10964;DHT22;5534;48.784;9.190;2024-01-10T16:14:28;3.00;99.90
10964;DHT22;5534;48.784;9.190;2024-01-10T16:16:53;2.60;99.90